Time;durP1;ratioP1;P1;durP2;ratioP2;P2;SDS_P1;SDS_P2;PMS_P1;PMS_P2;Temp;Humidity;BMP_temperature;BMP_pressure;BME280_temperature;BME280_humidity;BME280_pressure;Samples;Min_cycle;Max_cycle;Signal;HPM_P1;HPM_P2
2022/07/22 00:02:10;;;;;;;12.60;10.90;;;17.80;99.90;;;;;;5093456;28;20196;-79
2022/07/22 00:04:36;;;;;;;11.52;10.43;;;17.80;99.90;;;;;;5093357;28;20220;-79
2022/07/22 00:07:04;;;;;;;12.07;10.88;;;17.80;99.90;;;;;;5092961;28;20192;-79
2022/07/22 00:09:30;;;;;;;11.38;10.38;;;17.80;99.90;;;;;;5093514;28;20196;-79
2022/07/22 00:11:58;;;;;;;13.60;10.77;;;17.80;99.90;;;;;;5093380;28;20253;-79
2022/07/22 00:14:25;;;;;;;11.90;10.70;;;17.80;99.90;;;;;;5093209;28;20656;-79
2022/07/22 00:16:51;;;;;;;11.80;10.70;;;17.80;99.90;;;;;;5093195;28;20597;-79
2022/07/22 00:19:18;;;;;;;13.23;11.10;;;17.80;99.90;;;;;;5093182;28;20197;-79
2022/07/22 00:21:45;;;;;;;12.77;11.48;;;17.80;99.90;;;;;;5093057;28;20196;-79
2022/07/22 00:24:11;;;;;;;11.95;10.77;;;17.80;99.90;;;;;;5093182;28;20212;-79
2022/07/22 00:26:38;;;;;;;11.18;10.18;;;17.80;99.90;;;;;;5093092;28;20192;-79
2022/07/22 00:29:06;;;;;;;12.50;10.35;;;17.80;99.90;;;;;;5093240;28;20253;-79
2022/07/22 00:31:32;;;;;;;12.32;11.02;;;17.60;99.90;;;;;;5093031;28;20196;-80
2022/07/22 00:34:01;;;;;;;13.50;10.95;;;17.50;99.90;;;;;;5092946;28;20200;-79
2022/07/22 00:36:28;;;;;;;13.38;11.45;;;17.50;99.90;;;;;;5093157;28;20248;-79
2022/07/22 00:38:55;;;;;;;11.45;10.13;;;17.40;99.90;;;;;;5092936;28;20228;-79
2022/07/22 00:41:22;;;;;;;11.30;10.30;;;17.30;99.90;;;;;;5093051;28;20204;-79
2022/07/22 00:43:50;;;;;;;11.68;10.38;;;17.40;99.90;;;;;;5092945;28;20192;-79
2022/07/22 00:46:18;;;;;;;11.52;10.52;;;17.50;99.90;;;;;;5092849;28;20231;-79
2022/07/22 00:48:44;;;;;;;11.20;10.30;;;17.40;99.90;;;;;;5093149;28;20196;-79
2022/07/22 00:51:11;;;;;;;10.95;9.90;;;17.30;99.90;;;;;;5092920;28;20200;-79
2022/07/22 00:53:38;;;;;;;11.73;10.68;;;17.30;99.90;;;;;;5092873;28;20201;-79
2022/07/22 00:56:06;;;;;;;11.82;10.82;;;17.20;99.90;;;;;;5092737;28;20196;-79
2022/07/22 00:58:32;;;;;;;11.57;10.57;;;17.10;99.90;;;;;;5092597;28;20241;-79
2022/07/22 01:00:59;;;;;;;11.48;10.48;;;17.00;99.90;;;;;;5092701;28;20196;-79
2022/07/22 01:03:27;;;;;;;11.40;10.40;;;16.80;99.90;;;;;;5092837;28;20204;-79
2022/07/22 01:05:54;;;;;;;12.68;11.05;;;16.90;99.90;;;;;;5092821;28;20228;-79
2022/07/22 01:08:21;;;;;;;11.93;10.85;;;16.80;99.90;;;;;;5092829;28;20192;-80
2022/07/22 01:10:47;;;;;;;12.68;11.38;;;16.80;99.90;;;;;;5092576;28;20776;-80
2022/07/22 01:13:14;;;;;;;12.05;10.90;;;16.70;99.90;;;;;;5092579;28;20196;-79
2022/07/22 01:15:41;;;;;;;12.60;11.40;;;16.50;99.90;;;;;;5092444;28;20275;-78
2022/07/22 01:18:07;;;;;;;17.30;11.98;;;16.50;99.90;;;;;;5092593;28;20230;-78
2022/07/22 01:20:36;;;;;;;12.98;11.68;;;16.50;99.90;;;;;;5096276;28;20673;-78
2022/07/22 01:23:03;;;;;;;13.18;11.93;;;16.20;99.90;;;;;;5096470;28;20250;-79
2022/07/22 01:25:30;;;;;;;13.07;11.85;;;16.10;99.90;;;;;;5096160;28;20228;-79
2022/07/22 01:27:56;;;;;;;13.75;12.15;;;16.10;99.90;;;;;;5096318;28;20193;-79
2022/07/22 01:30:23;;;;;;;12.70;11.60;;;16.10;99.90;;;;;;5096305;28;20193;-78
2022/07/22 01:32:49;;;;;;;14.23;12.73;;;16.20;99.90;;;;;;5096375;28;20192;-77
2022/07/22 01:35:16;;;;;;;15.90;13.07;;;16.10;99.90;;;;;;5096239;28;20656;-79
2022/07/22 01:37:44;;;;;;;14.35;12.82;;;16.10;99.90;;;;;;5096231;28;20196;-79
2022/07/22 01:40:12;;;;;;;14.82;13.43;;;16.00;99.90;;;;;;5095849;28;20629;-79
2022/07/22 01:42:39;;;;;;;15.05;13.52;;;16.20;99.90;;;;;;5095894;28;20201;-79
2022/07/22 01:45:07;;;;;;;14.30;13.00;;;16.20;99.90;;;;;;5096077;28;20252;-78
2022/07/22 01:47:33;;;;;;;15.20;13.80;;;16.20;99.90;;;;;;5096090;28;20238;-78
2022/07/22 01:50:01;;;;;;;15.10;13.73;;;16.20;99.90;;;;;;5095931;28;20200;-79
2022/07/22 01:52:27;;;;;;;14.75;13.38;;;16.20;99.90;;;;;;5095883;28;20281;-79
2022/07/22 01:54:55;;;;;;;14.65;13.25;;;16.10;99.90;;;;;;5096087;28;20242;-78
2022/07/22 01:57:22;;;;;;;16.63;14.93;;;15.90;99.90;;;;;;5096096;28;20285;-79
2022/07/22 01:59:49;;;;;;;18.67;14.90;;;15.60;99.90;;;;;;5095508;28;20663;-79
2022/07/22 02:02:15;;;;;;;16.60;14.90;;;15.50;99.90;;;;;;5095635;28;20344;-80
2022/07/22 02:04:42;;;;;;;15.97;14.43;;;15.30;99.90;;;;;;5095538;28;20224;-78
2022/07/22 02:07:08;;;;;;;16.23;14.57;;;15.30;99.90;;;;;;5095245;28;20663;-79
2022/07/22 02:09:35;;;;;;;16.80;15.20;;;15.30;99.90;;;;;;5095344;28;20197;-79
2022/07/22 02:12:03;;;;;;;16.27;14.57;;;15.40;99.90;;;;;;5095317;28;20200;-78
2022/07/22 02:14:30;;;;;;;17.17;15.43;;;15.30;99.90;;;;;;5095580;28;20208;-78
2022/07/22 02:16:56;;;;;;;16.90;15.40;;;15.40;99.90;;;;;;5095548;28;20200;-78
2022/07/22 02:19:23;;;;;;;16.70;15.20;;;15.30;99.90;;;;;;5095276;28;20656;-79
2022/07/22 02:21:50;;;;;;;17.10;15.30;;;15.30;99.90;;;;;;5095452;28;20204;-79
2022/07/22 02:24:17;;;;;;;16.63;15.03;;;15.20;99.90;;;;;;5095152;28;20204;-79
2022/07/22 02:26:43;;;;;;;17.87;16.17;;;15.20;99.90;;;;;;5095344;28;20228;-79
2022/07/22 02:29:11;;;;;;;17.70;16.03;;;15.20;99.90;;;;;;5095235;28;20197;-79
2022/07/22 02:31:38;;;;;;;17.77;15.87;;;15.20;99.90;;;;;;5095416;28;20234;-80
2022/07/22 02:34:05;;;;;;;18.10;16.20;;;15.10;99.90;;;;;;5095562;28;20208;-79
2022/07/22 02:36:31;;;;;;;17.90;16.20;;;15.10;99.90;;;;;;5095766;28;20204;-79
2022/07/22 02:38:58;;;;;;;17.00;15.27;;;15.10;99.90;;;;;;5095209;28;20228;-79
2022/07/22 02:41:25;;;;;;;17.57;15.73;;;15.10;99.90;;;;;;5095278;28;20206;-79
2022/07/22 02:43:53;;;;;;;17.07;15.27;;;15.20;99.90;;;;;;5094949;28;20196;-79
2022/07/22 02:46:21;;;;;;;16.67;14.90;;;15.10;99.90;;;;;;5094806;28;20224;-79
2022/07/22 02:48:48;;;;;;;18.13;16.20;;;15.10;99.90;;;;;;5094636;28;20249;-79
2022/07/22 02:51:14;;;;;;;17.90;15.93;;;15.10;99.90;;;;;;5094536;28;20594;-79
2022/07/22 02:53:41;;;;;;;17.90;16.00;;;15.10;99.90;;;;;;5094426;28;20242;-79
2022/07/22 02:56:08;;;;;;;17.77;16.03;;;15.20;99.90;;;;;;5094677;28;20204;-79
2022/07/22 02:58:35;;;;;;;16.87;15.27;;;15.30;99.90;;;;;;5094691;28;20200;-79
2022/07/22 03:01:01;;;;;;;17.23;15.53;;;15.40;99.90;;;;;;5094455;28;20200;-78
2022/07/22 03:03:29;;;;;;;17.67;16.07;;;15.40;99.90;;;;;;5094363;28;20200;-79
2022/07/22 03:05:56;;;;;;;17.10;15.60;;;15.50;99.90;;;;;;5094100;28;20648;-78
2022/07/22 03:08:23;;;;;;;16.87;15.27;;;15.50;99.90;;;;;;5094599;28;20196;-79
2022/07/22 03:10:49;;;;;;;16.27;14.73;;;15.60;99.90;;;;;;5094031;28;20635;-79
2022/07/22 03:13:16;;;;;;;17.07;15.33;;;15.60;99.90;;;;;;5094241;28;20200;-78
2022/07/22 03:15:43;;;;;;;16.03;14.37;;;15.50;99.90;;;;;;5094047;28;20708;-79
2022/07/22 03:18:09;;;;;;;17.27;15.57;;;15.40;99.90;;;;;;5094054;28;20198;-78
2022/07/22 03:20:37;;;;;;;16.57;14.87;;;15.30;99.90;;;;;;5093950;28;20196;-79
2022/07/22 03:23:04;;;;;;;16.50;14.90;;;15.30;99.90;;;;;;5094191;28;20597;-79
2022/07/22 03:25:32;;;;;;;15.60;14.10;;;15.30;99.90;;;;;;5093970;28;20236;-79
2022/07/22 03:27:59;;;;;;;15.50;14.00;;;15.20;99.90;;;;;;5094097;28;20245;-79
2022/07/22 03:30:25;;;;;;;15.80;14.13;;;15.20;99.90;;;;;;5093913;28;20245;-79
2022/07/22 03:32:52;;;;;;;15.40;13.90;;;15.10;99.90;;;;;;5093805;28;20196;-79
2022/07/22 03:35:19;;;;;;;15.97;14.33;;;15.00;99.90;;;;;;5093753;28;20287;-79
2022/07/22 03:37:47;;;;;;;17.50;14.53;;;14.90;99.90;;;;;;5101287;28;20291;-79
2022/07/22 03:40:14;;;;;;;15.50;14.00;;;15.00;99.90;;;;;;5101320;28;20633;-78
2022/07/22 03:42:41;;;;;;;14.93;13.53;;;15.00;99.90;;;;;;5093173;28;20257;-79
2022/07/22 03:45:09;;;;;;;15.37;13.77;;;15.00;99.90;;;;;;5093535;28;20594;-79
2022/07/22 03:47:36;;;;;;;15.27;13.70;;;14.90;99.90;;;;;;5093544;28;20203;-79
2022/07/22 03:50:03;;;;;;;14.47;13.00;;;14.90;99.90;;;;;;5093476;28;20250;-79
2022/07/22 03:52:30;;;;;;;15.10;13.70;;;14.90;99.90;;;;;;5093367;28;20732;-79
2022/07/22 03:54:58;;;;;;;14.50;13.20;;;14.90;99.90;;;;;;5093340;28;20196;-79
2022/07/22 03:57:25;;;;;;;15.70;14.27;;;14.90;99.90;;;;;;5093389;28;20196;-79
2022/07/22 03:59:51;;;;;;;15.27;13.70;;;14.90;99.90;;;;;;5093429;28;20203;-79
2022/07/22 04:02:19;;;;;;;15.80;14.20;;;14.90;99.90;;;;;;5094065;28;20601;-79
2022/07/22 04:04:46;;;;;;;15.60;13.93;;;14.90;99.90;;;;;;5093287;28;20639;-79
2022/07/22 04:07:13;;;;;;;15.43;13.93;;;15.00;99.90;;;;;;5093523;28;20583;-79
2022/07/22 04:09:39;;;;;;;14.33;12.93;;;15.20;99.90;;;;;;5093856;28;20325;-79
2022/07/22 04:12:08;;;;;;;15.47;13.87;;;15.30;99.90;;;;;;5093429;28;20200;-79
2022/07/22 04:14:34;;;;;;;15.80;14.20;;;15.30;99.90;;;;;;5093110;28;20191;-79
2022/07/22 04:17:01;;;;;;;15.10;13.60;;;15.40;99.90;;;;;;5092962;28;20598;-79
2022/07/22 04:19:28;;;;;;;15.87;13.50;;;15.40;99.90;;;;;;5093129;28;20193;-79
2022/07/22 04:21:54;;;;;;;14.40;13.10;;;15.40;99.90;;;;;;5093185;28;20250;-79
2022/07/22 04:24:21;;;;;;;16.37;14.10;;;15.30;99.90;;;;;;5093075;28;20196;-79
2022/07/22 04:26:47;;;;;;;14.30;13.00;;;15.20;99.90;;;;;;5092785;28;20610;-79
2022/07/22 04:29:15;;;;;;;14.87;13.37;;;15.30;99.90;;;;;;5092780;28;20197;-79
2022/07/22 04:31:42;;;;;;;16.03;14.43;;;15.30;99.90;;;;;;5092825;28;20226;-79
2022/07/22 04:34:09;;;;;;;15.40;13.80;;;15.30;99.90;;;;;;5093054;28;20246;-79
2022/07/22 04:36:35;;;;;;;19.93;15.10;;;15.30;99.90;;;;;;5092947;28;20805;-79
2022/07/22 04:39:02;;;;;;;17.53;15.27;;;15.50;99.90;;;;;;5092794;28;20220;-79
2022/07/22 04:41:28;;;;;;;17.45;14.73;;;15.60;99.90;;;;;;5093074;28;20253;-79
2022/07/22 04:43:55;;;;;;;16.87;15.20;;;15.70;99.90;;;;;;5093058;28;20201;-78
2022/07/22 04:46:23;;;;;;;15.60;14.13;;;15.80;99.90;;;;;;5093047;28;20223;-79
2022/07/22 04:48:50;;;;;;;17.97;15.13;;;15.80;99.90;;;;;;5092677;28;20659;-79
2022/07/22 04:51:16;;;;;;;16.67;15.07;;;15.90;99.90;;;;;;5092846;28;20196;-79
2022/07/22 04:53:43;;;;;;;15.07;13.67;;;16.10;99.90;;;;;;5095360;28;20721;-79
2022/07/22 04:56:09;;;;;;;17.93;14.57;;;16.20;99.90;;;;;;5096802;28;20257;-79
2022/07/22 04:58:36;;;;;;;16.65;14.95;;;16.20;99.90;;;;;;5096661;28;20196;-79
2022/07/22 05:01:03;;;;;;;18.33;14.77;;;16.30;99.90;;;;;;5096897;28;20249;-79
2022/07/22 05:03:31;;;;;;;16.90;14.02;;;16.40;99.90;;;;;;5096891;28;20285;-79
2022/07/22 05:05:57;;;;;;;15.85;14.10;;;16.40;99.90;;;;;;5096795;28;20289;-79
2022/07/22 05:08:24;;;;;;;16.20;14.68;;;16.60;99.90;;;;;;5096761;28;20196;-75
2022/07/22 05:10:50;;;;;;;16.48;14.80;;;16.60;99.90;;;;;;5096553;28;20555;-75
2022/07/22 05:13:17;;;;;;;16.42;14.88;;;16.60;99.90;;;;;;5096487;28;20192;-74
2022/07/22 05:15:44;;;;;;;17.67;15.32;;;16.60;99.90;;;;;;5096705;28;20200;-74
2022/07/22 05:18:10;;;;;;;15.68;14.07;;;16.70;99.90;;;;;;5096632;28;20200;-75
2022/07/22 05:20:38;;;;;;;16.85;14.95;;;16.80;99.90;;;;;;5096521;28;20254;-76
2022/07/22 05:23:05;;;;;;;15.20;13.80;;;16.90;99.90;;;;;;5096304;28;20200;-76
2022/07/22 05:25:31;;;;;;;16.48;14.80;;;17.00;99.90;;;;;;5096177;28;20192;-75
2022/07/22 05:27:58;;;;;;;16.42;14.25;;;17.20;99.90;;;;;;5096196;28;20192;-76
2022/07/22 05:30:25;;;;;;;15.48;14.05;;;17.20;99.90;;;;;;5096027;28;20196;-75
2022/07/22 05:32:52;;;;;;;15.68;14.18;;;17.40;99.90;;;;;;5096353;28;20196;-82
2022/07/22 05:35:19;;;;;;;15.25;13.73;;;17.50;99.90;;;;;;5096250;28;20283;-83
2022/07/22 05:37:48;;;;;;;14.90;13.50;;;17.50;99.90;;;;;;5096079;28;20201;-83
2022/07/22 05:40:14;;;;;;;15.80;14.30;;;17.60;99.90;;;;;;5096004;28;20277;-82
2022/07/22 05:42:41;;;;;;;16.60;14.90;;;17.60;99.90;;;;;;5096072;28;20196;-83
2022/07/22 05:45:08;;;;;;;16.45;14.65;;;17.50;99.90;;;;;;5096176;28;20261;-83
2022/07/22 05:47:35;;;;;;;16.45;14.20;;;17.70;99.90;;;;;;5096409;28;20232;-83
2022/07/22 05:50:01;;;;;;;15.90;14.40;;;17.80;99.90;;;;;;5097645;28;20200;-83
2022/07/22 05:52:28;;;;;;;16.33;14.63;;;17.90;99.90;;;;;;5096207;28;20195;-83
2022/07/22 05:54:56;;;;;;;16.17;14.27;;;18.00;99.90;;;;;;5096339;28;20259;-82
2022/07/22 05:57:22;;;;;;;15.45;13.95;;;18.10;99.90;;;;;;5098487;28;20671;-83
2022/07/22 05:59:49;;;;;;;15.73;14.23;;;18.20;99.90;;;;;;5099319;28;20258;-83
2022/07/22 06:02:16;;;;;;;16.83;15.13;;;18.20;99.90;;;;;;5096324;28;20226;-83
2022/07/22 06:04:42;;;;;;;15.80;14.30;;;18.30;99.90;;;;;;5095293;28;20605;-82
2022/07/22 06:07:09;;;;;;;14.68;13.27;;;18.40;99.90;;;;;;5095786;28;20223;-81
2022/07/22 06:09:35;;;;;;;14.95;13.65;;;18.50;99.90;;;;;;5095834;28;20204;-82
2022/07/22 06:12:04;;;;;;;14.98;13.40;;;18.60;99.90;;;;;;5095640;28;20223;-81
2022/07/22 06:14:31;;;;;;;15.85;14.05;;;18.70;99.90;;;;;;5095496;28;20197;-82
2022/07/22 06:16:57;;;;;;;16.15;13.02;;;18.80;99.90;;;;;;5095473;28;20192;-81
2022/07/22 06:19:24;;;;;;;14.93;13.55;;;19.00;99.90;;;;;;5095445;28;20652;-83
2022/07/22 06:21:51;;;;;;;14.10;12.73;;;19.00;99.90;;;;;;5095218;28;20202;-82
2022/07/22 06:24:18;;;;;;;14.35;12.65;;;19.10;99.90;;;;;;5095593;28;20197;-82
2022/07/22 06:26:45;;;;;;;13.68;12.43;;;19.20;99.90;;;;;;5095422;28;20269;-82
2022/07/22 06:29:13;;;;;;;13.00;11.80;;;19.30;99.90;;;;;;5095148;28;20356;-82
2022/07/22 06:31:39;;;;;;;14.77;12.30;;;19.50;99.90;;;;;;5095276;28;20606;-82
2022/07/22 06:34:06;;;;;;;14.02;12.38;;;19.60;99.90;;;;;;5095135;28;20196;-82
2022/07/22 06:36:33;;;;;;;13.13;11.82;;;19.70;99.90;;;;;;5095099;28;20555;-82
2022/07/22 06:39:00;;;;;;;13.02;11.73;;;19.70;99.90;;;;;;5095211;28;20286;-82
2022/07/22 06:41:27;;;;;;;11.88;10.68;;;19.80;99.90;;;;;;5094753;28;20200;-82
2022/07/22 06:43:54;;;;;;;13.85;11.80;;;20.00;99.90;;;;;;5095326;28;20200;-82
2022/07/22 06:46:22;;;;;;;11.35;10.25;;;20.10;99.90;;;;;;5094696;28;20679;-82
2022/07/22 06:48:49;;;;;;;10.88;9.77;;;20.10;99.90;;;;;;5095344;28;20265;-82
2022/07/22 06:51:15;;;;;;;10.50;9.60;;;20.20;99.90;;;;;;5094866;28;20203;-82
2022/07/22 06:53:42;;;;;;;13.20;9.70;;;20.40;99.90;;;;;;5094632;28;20634;-82
2022/07/22 06:56:09;;;;;;;10.00;8.98;;;20.60;99.90;;;;;;5094730;28;20200;-82
2022/07/22 06:58:36;;;;;;;10.48;9.32;;;20.60;99.90;;;;;;5094730;28;20196;-81
2022/07/22 07:01:03;;;;;;;11.57;9.90;;;20.70;99.90;;;;;;5094766;28;20200;-82
2022/07/22 07:03:31;;;;;;;9.57;8.68;;;20.90;99.90;;;;;;5094426;28;20704;-82
2022/07/22 07:05:57;;;;;;;10.48;9.35;;;21.00;99.90;;;;;;5094369;28;20656;-83
2022/07/22 07:08:24;;;;;;;12.60;9.65;;;21.00;99.90;;;;;;5094583;28;20224;-82
2022/07/22 07:10:50;;;;;;;10.15;9.15;;;21.10;99.90;;;;;;5094193;28;20730;-83
2022/07/22 07:13:17;;;;;;;10.75;9.70;;;21.30;99.90;;;;;;5094488;28;20214;-83
2022/07/22 07:15:44;;;;;;;10.02;9.13;;;21.30;99.90;;;;;;5093845;28;20201;-83
2022/07/22 07:18:11;;;;;;;10.63;9.60;;;21.40;99.90;;;;;;5093906;28;20255;-82
2022/07/22 07:20:39;;;;;;;10.70;9.70;;;21.50;99.90;;;;;;5094579;28;20247;-82
2022/07/22 07:23:05;;;;;;;11.02;9.27;;;21.60;99.90;;;;;;5095311;28;20204;-82
2022/07/22 07:25:33;;;;;;;10.65;9.55;;;21.50;99.90;;;;;;5096924;28;20201;-82
2022/07/22 07:28:00;;;;;;;10.70;9.70;;;21.40;99.90;;;;;;5097529;28;20223;-82
2022/07/22 07:30:27;;;;;;;10.10;9.10;;;21.40;99.90;;;;;;5098457;28;20222;-82
2022/07/22 07:32:53;;;;;;;11.75;9.85;;;21.50;99.90;;;;;;5097969;28;20201;-82
2022/07/22 07:35:20;;;;;;;9.85;8.85;;;21.80;99.90;;;;;;5096523;28;20196;-81
2022/07/22 07:37:48;;;;;;;9.27;8.45;;;21.90;99.90;;;;;;5094257;28;20261;-82
2022/07/22 07:40:15;;;;;;;10.88;9.30;;;22.10;99.90;;;;;;5093647;28;20228;-82
2022/07/22 07:42:42;;;;;;;11.25;9.30;;;22.20;99.90;;;;;;5094442;28;20200;-82
2022/07/22 07:45:09;;;;;;;12.60;9.40;;;22.20;99.90;;;;;;5093745;28;20204;-82
2022/07/22 07:47:36;;;;;;;10.45;9.38;;;22.30;99.90;;;;;;5094692;28;20271;-83
2022/07/22 07:50:02;;;;;;;10.77;9.18;;;22.30;99.90;;;;;;5095490;28;20200;-82
2022/07/22 07:52:29;;;;;;;10.48;9.38;;;22.30;99.90;;;;;;5094995;28;20249;-82
2022/07/22 07:54:58;;;;;;;9.98;9.02;;;22.40;99.90;;;;;;5094529;28;20195;-83
2022/07/22 07:57:24;;;;;;;11.25;9.30;;;22.50;99.90;;;;;;5093580;28;20211;-83
2022/07/22 07:59:51;;;;;;;10.07;9.18;;;22.80;99.90;;;;;;5093279;28;20192;-82
2022/07/22 08:02:18;;;;;;;10.00;9.00;;;22.90;99.90;;;;;;5093431;28;20594;-83
2022/07/22 08:04:44;;;;;;;9.70;8.70;;;23.20;99.90;;;;;;5093487;28;20656;-83
2022/07/22 08:07:11;;;;;;;11.23;10.25;;;23.40;99.90;;;;;;5093215;28;20630;-83
2022/07/22 08:09:38;;;;;;;9.27;8.48;;;23.40;99.90;;;;;;5093322;28;20652;-83
2022/07/22 08:12:06;;;;;;;9.93;8.93;;;23.60;99.90;;;;;;5093255;28;20199;-83
2022/07/22 08:14:33;;;;;;;9.63;8.68;;;24.00;99.90;;;;;;5093181;28;20258;-83
2022/07/22 08:17:00;;;;;;;9.80;8.80;;;24.20;99.90;;;;;;5093116;28;20200;-82
2022/07/22 08:19:26;;;;;;;11.00;8.90;;;24.50;99.90;;;;;;5093083;28;20722;-83
2022/07/22 08:21:53;;;;;;;9.27;8.35;;;24.70;99.90;;;;;;5092995;28;20644;-82
2022/07/22 08:24:20;;;;;;;9.20;8.35;;;24.90;99.90;;;;;;5093406;28;20196;-82
2022/07/22 08:26:47;;;;;;;8.93;8.13;;;25.10;99.90;;;;;;5092910;28;20253;-81
2022/07/22 08:29:15;;;;;;;9.55;8.45;;;25.10;99.90;;;;;;5093174;28;20608;-82
2022/07/22 08:31:41;;;;;;;10.57;8.43;;;25.40;99.90;;;;;;5093166;28;20192;-81
2022/07/22 08:34:08;;;;;;;9.05;8.20;;;25.60;99.90;;;;;;5093052;28;20242;-82
2022/07/22 08:36:35;;;;;;;9.70;8.80;;;25.60;99.90;;;;;;5093040;28;20196;-81
2022/07/22 08:39:02;;;;;;;8.73;8.02;;;25.50;99.90;;;;;;5092641;28;20297;-81
2022/07/22 08:41:30;;;;;;;8.98;8.07;;;25.60;99.90;;;;;;5092693;28;20273;-83
2022/07/22 08:43:58;;;;;;;9.05;8.15;;;25.80;99.90;;;;;;5093089;28;20279;-82
2022/07/22 08:46:26;;;;;;;9.43;8.02;;;26.00;99.90;;;;;;5092459;28;20681;-82
2022/07/22 08:48:54;;;;;;;8.90;8.00;;;26.10;99.90;;;;;;5092932;28;20232;-82
2022/07/22 08:51:22;;;;;;;9.70;8.73;;;26.20;99.90;;;;;;5092899;28;20207;-82
2022/07/22 08:53:48;;;;;;;9.07;8.07;;;26.10;99.90;;;;;;5092562;28;20254;-81
2022/07/22 08:56:15;;;;;;;10.75;8.15;;;25.70;99.90;;;;;;5092723;28;20200;-82
2022/07/22 08:58:42;;;;;;;8.82;8.02;;;25.80;99.90;;;;;;5092847;28;20277;-81
2022/07/22 09:01:12;;;;;;;9.43;8.25;;;25.90;99.90;;;;;;5092875;28;20196;-82
2022/07/22 09:03:49;;;;;;;8.85;8.05;;;26.00;99.90;;;;;;5092775;28;20414;-82
2022/07/22 09:06:16;;;;;;;11.05;8.25;;;26.70;99.90;;;;;;5092812;28;20590;-82
2022/07/22 09:08:55;;;;;;;9.00;8.10;;;27.20;99.90;;;;;;5092430;28;20223;-82
2022/07/22 09:11:23;;;;;;;8.23;7.43;;;27.50;99.90;;;;;;5092796;28;20253;-82
2022/07/22 09:13:50;;;;;;;8.75;7.88;;;27.50;99.90;;;;;;5092681;28;20218;-82
2022/07/22 09:16:17;;;;;;;8.77;7.55;;;27.10;99.00;;;;;;5092507;28;20717;-82
2022/07/22 09:18:51;;;;;;;9.15;7.90;;;26.70;99.30;;;;;;5092598;28;20205;-82
2022/07/22 09:21:18;;;;;;;8.48;7.68;;;26.40;99.20;;;;;;5092456;28;20200;-82
2022/07/22 09:23:45;;;;;;;9.82;8.02;;;26.70;98.10;;;;;;5092679;28;20197;-82
2022/07/22 09:26:31;;;;;;;7.97;7.10;;;26.80;98.60;;;;;;5092618;28;20200;-82
2022/07/22 09:28:59;;;;;;;9.00;8.07;;;27.30;97.20;;;;;;5092356;28;20232;-82
2022/07/22 09:31:27;;;;;;;9.50;8.52;;;27.30;95.70;;;;;;5092363;28;20237;-82
2022/07/22 09:33:55;;;;;;;8.75;7.95;;;27.50;96.20;;;;;;5092525;28;20208;-82
2022/07/22 09:36:22;;;;;;;8.63;7.72;;;28.10;94.70;;;;;;5092453;28;20199;-83
2022/07/22 09:38:49;;;;;;;8.40;7.55;;;28.80;93.70;;;;;;5092302;28;20239;-83
2022/07/22 09:41:16;;;;;;;8.50;7.70;;;29.10;91.30;;;;;;5095516;28;20202;-83
2022/07/22 09:43:42;;;;;;;8.30;7.50;;;29.10;89.90;;;;;;5096050;28;20200;-83
2022/07/22 09:46:09;;;;;;;10.77;7.72;;;28.90;90.40;;;;;;5095985;28;20196;-83
2022/07/22 09:48:37;;;;;;;9.05;8.20;;;29.10;85.70;;;;;;5095995;28;20246;-83
2022/07/22 09:51:06;;;;;;;9.35;7.63;;;29.50;85.90;;;;;;5096135;28;20226;-82
2022/07/22 09:53:33;;;;;;;15.63;7.60;;;30.00;83.60;;;;;;5095843;28;20656;-82
2022/07/22 09:56:02;;;;;;;7.95;7.18;;;30.30;79.30;;;;;;5095917;28;20199;-83
2022/07/22 09:58:29;;;;;;;9.10;7.60;;;30.50;75.60;;;;;;5095755;28;20617;-82
2022/07/22 10:00:59;;;;;;;8.45;7.57;;;29.80;73.70;;;;;;5095959;28;20223;-81
2022/07/22 10:03:28;;;;;;;7.97;7.13;;;29.50;75.90;;;;;;5095829;28;20200;-83
2022/07/22 10:05:55;;;;;;;8.90;8.05;;;30.10;76.70;;;;;;5096171;28;20196;-82
2022/07/22 10:08:25;;;;;;;8.52;7.68;;;30.20;71.10;;;;;;5096615;28;20262;-83
2022/07/22 10:10:53;;;;;;;8.10;7.32;;;29.60;73.00;;;;;;5096289;28;20204;-83
2022/07/22 10:13:20;;;;;;;8.00;7.20;;;29.70;73.20;;;;;;5095922;28;20229;-83
2022/07/22 10:15:48;;;;;;;9.40;7.38;;;30.30;69.80;;;;;;5096619;28;20201;-82
2022/07/22 10:18:16;;;;;;;9.20;7.72;;;31.20;68.50;;;;;;5096155;28;20200;-83
2022/07/22 10:20:43;;;;;;;8.02;7.32;;;31.20;64.30;;;;;;5095732;28;20207;-82
2022/07/22 10:23:11;;;;;;;7.68;6.88;;;31.40;64.10;;;;;;5095635;28;20325;-83
2022/07/22 10:25:54;;;;;;;10.18;6.90;;;32.30;63.70;;;;;;5097029;28;20203;-84
2022/07/22 10:28:26;;;;;;;12.73;7.57;;;33.00;58.10;;;;;;5104604;28;20223;-83
2022/07/22 10:30:53;;;;;;;8.20;7.40;;;31.80;56.80;;;;;;5100896;28;20200;-83
2022/07/22 10:33:20;;;;;;;7.53;6.85;;;31.40;57.10;;;;;;5101495;28;20250;-83
2022/07/22 10:35:55;;;;;;;7.75;6.82;;;31.70;56.60;;;;;;5098508;28;20196;-82
2022/07/22 10:38:23;;;;;;;9.02;6.80;;;32.30;56.40;;;;;;5096341;28;20195;-83
2022/07/22 10:40:53;;;;;;;7.25;6.72;;;33.30;53.60;;;;;;5098174;28;20245;-83
2022/07/22 10:43:22;;;;;;;10.07;6.82;;;33.20;50.90;;;;;;5097296;28;20198;-84
2022/07/22 10:45:51;;;;;;;7.18;6.50;;;32.90;52.00;;;;;;5098207;28;20204;-83
2022/07/22 10:48:21;;;;;;;7.95;6.32;;;34.20;48.80;;;;;;5098668;28;20686;-83
2022/07/22 10:51:08;;;;;;;7.28;6.68;;;34.10;47.70;;;;;;5099808;28;20241;-83
2022/07/22 10:53:44;;;;;;;8.05;6.10;;;34.70;46.90;;;;;;5096547;28;20650;-82
2022/07/22 10:56:18;;;;;;;6.78;6.15;;;35.70;44.10;;;;;;5095941;28;20559;-83
2022/07/22 10:58:57;;;;;;;6.57;6.00;;;36.00;41.60;;;;;;5097262;28;20219;-82
2022/07/22 11:01:27;;;;;;;7.60;5.75;;;36.10;41.30;;;;;;5095264;28;20219;-82
2022/07/22 11:03:54;;;;;;;7.03;6.40;;;37.40;38.90;;;;;;5095052;28;20630;-84
2022/07/22 11:06:24;;;;;;;5.80;5.30;;;37.70;37.00;;;;;;5094933;28;20229;-83
2022/07/22 11:08:53;;;;;;;8.50;6.47;;;38.50;35.20;;;;;;5094463;28;20628;-85
2022/07/22 11:11:33;;;;;;;5.97;5.43;;;39.20;32.60;;;;;;5094805;28;20196;-81
2022/07/22 11:14:00;;;;;;;7.93;5.93;;;39.50;31.10;;;;;;5095038;28;20222;-83
2022/07/22 11:16:28;;;;;;;6.32;5.70;;;39.80;29.80;;;;;;5094611;28;20200;-83
2022/07/22 11:18:56;;;;;;;5.82;5.20;;;40.60;28.70;;;;;;5096638;28;20245;-83
2022/07/22 11:21:25;;;;;;;6.00;5.43;;;40.80;27.50;;;;;;5099254;28;20233;-82
2022/07/22 11:23:54;;;;;;;9.70;5.28;;;41.20;26.70;;;;;;5097268;28;20192;-82
2022/07/22 11:26:26;;;;;;;7.95;4.80;;;41.30;26.00;;;;;;5097295;28;20269;-82
2022/07/22 11:28:53;;;;;;;7.10;5.65;;;41.40;25.10;;;;;;5096770;28;20224;-83
2022/07/22 11:31:20;;;;;;;7.70;5.57;;;40.60;24.10;;;;;;5094401;28;20291;-82
2022/07/22 11:33:47;;;;;;;5.60;5.07;;;40.40;25.30;;;;;;5094027;28;20203;-83
2022/07/22 11:36:13;;;;;;;6.97;5.30;;;40.60;24.20;;;;;;5093985;28;20196;-82
2022/07/22 11:38:45;;;;;;;5.90;5.40;;;40.30;23.80;;;;;;5093892;28;20228;-83
2022/07/22 11:41:12;;;;;;;6.50;5.45;;;40.10;23.80;;;;;;5094168;28;20198;-81
2022/07/22 11:43:42;;;;;;;6.65;5.38;;;40.70;24.10;;;;;;5094167;28;20191;-83
2022/07/22 11:46:08;;;;;;;5.10;4.70;;;41.00;23.00;;;;;;5093991;28;20593;-82
2022/07/22 11:48:37;;;;;;;6.60;5.07;;;40.80;23.30;;;;;;5093713;28;20690;-82
2022/07/22 11:51:04;;;;;;;8.20;5.10;;;41.80;22.60;;;;;;5093757;28;20196;-82
2022/07/22 11:53:31;;;;;;;6.80;5.20;;;39.70;22.40;;;;;;5093948;28;20606;-81
2022/07/22 11:55:59;;;;;;;6.60;5.78;;;39.70;22.90;;;;;;5093897;28;20254;-82
2022/07/22 11:58:36;;;;;;;6.20;5.60;;;39.40;22.80;;;;;;5093624;28;20200;-81
2022/07/22 12:01:12;;;;;;;5.63;5.22;;;39.50;22.40;;;;;;5093554;28;20707;-82
2022/07/22 12:03:41;;;;;;;5.22;4.82;;;39.20;22.90;;;;;;5093166;28;20203;-82
2022/07/22 12:06:09;;;;;;;6.03;5.13;;;40.70;22.20;;;;;;5093805;28;20199;-83
2022/07/22 12:08:41;;;;;;;5.72;5.18;;;41.40;21.40;;;;;;5093550;28;20219;-82
2022/07/22 12:11:09;;;;;;;5.35;4.85;;;41.30;20.80;;;;;;5093489;28;20282;-81
2022/07/22 12:13:36;;;;;;;5.60;5.10;;;40.90;20.90;;;;;;5093478;28;20203;-83
2022/07/22 12:16:21;;;;;;;5.47;4.97;;;40.80;20.60;;;;;;5093250;28;20670;-83
2022/07/22 12:18:52;;;;;;;5.93;5.32;;;39.60;21.40;;;;;;5093808;28;20203;-82
2022/07/22 12:21:20;;;;;;;5.30;4.90;;;40.60;20.80;;;;;;5093539;28;20222;-82
2022/07/22 12:23:51;;;;;;;5.35;4.82;;;40.80;20.30;;;;;;5093543;28;20200;-83
2022/07/22 12:26:19;;;;;;;5.75;4.80;;;40.10;20.00;;;;;;5093461;28;20681;-80
2022/07/22 12:28:46;;;;;;;6.63;4.65;;;40.40;20.50;;;;;;5093195;28;20268;-83
2022/07/22 12:31:12;;;;;;;4.90;4.40;;;41.50;19.70;;;;;;5093746;28;20540;-82
2022/07/22 12:33:49;;;;;;;5.53;5.03;;;42.10;19.60;;;;;;5094131;28;20195;-83
2022/07/22 12:36:16;;;;;;;5.00;4.50;;;41.20;18.80;;;;;;5093836;28;20201;-82
2022/07/22 12:38:42;;;;;;;5.13;4.70;;;40.50;19.60;;;;;;5093501;28;20235;-82